SondeTracker

Meteorological Radiosondes Database

Operations

Sounding was ended - last measurement: 2022-12-07 00:52:25z

MAP
About Radiosonde

Number: D22044254 ([BC]22044254)

Launch Site: Albuquerque [NM] (US)

Type: DFM

AUX: NO

Frequency: MHz

Max Speed: 233 km/h at 11292 m

Average Speed: 130.22 km/h

Max Altitude: 33257 m

Average Ascent Speed: 5.49 m/s

Average Descent Speed: 28.64 m/s

Status: UNKNOWN

Status Changes
Launch Site Type AUX Frequency Status Finder Landing Point Description Changes made by
APRS Statistics

Received Frames: 54

First Frame [UTC]: 2022-12-06 23:31:26z

Last Frame [UTC]: 2022-12-07 00:52:25z

Receivers: KB5VL-14

Flight Time: 01:20:59 h

Distance From First Measurement: 145.54 km

Nearest City: Las Vegas [NM] (US) [63.18 km]

Nearest Hunter: [0.00 km]

Ground Altitude: 1557 m

Distance from QTH: 0.00 km

APRS Data
Receiver Number Date/Time [UTC] φ λ Course [°] Speed [km/h] Altitude [m] Description
KB5VL-14D220442542022-12-07 00:52:2535.4884-104.5377516914469Clb=-15.9m/s Type=DFM17 ser=[BC]22044254 Details on http://radiosondy.info
KB5VL-14D220442542022-12-07 00:47:5635.466-104.616758317551Clb=-18.5m/s Type=DFM17 ser=[BC]22044254 Details on http://radiosondy.info
KB5VL-14D220442542022-12-07 00:44:2235.4625-104.655895620633Clb=-26.5m/s Type=DFM17 ser=[BC]22044254 Details on http://radiosondy.info
KB5VL-14D220442542022-12-07 00:44:0135.4621-104.657677221043Clb=-27.9m/s Type=DFM17 ser=[BC]22044254 Details on http://radiosondy.info
KB5VL-14D220442542022-12-07 00:43:4635.4612-104.66857621437Clb=-28.0m/s Type=DFM17 ser=[BC]22044254 Details on http://radiosondy.info
KB5VL-14D220442542022-12-07 00:43:3135.461-104.664896121885Clb=-27.9m/s Type=DFM17 ser=[BC]22044254 Details on http://radiosondy.info
KB5VL-14D220442542022-12-07 00:41:4835.4669-104.685816127195Clb=-41.5m/s Type=DFM17 ser=[BC]22044254 Details on http://radiosondy.info
KB5VL-14D220442542022-12-07 00:41:4435.4672-104.6881028127794Clb=-41.1m/s Type=DFM17 ser=[BC]22044254 Details on http://radiosondy.info
KB5VL-14D220442542022-12-07 00:41:2935.4669-104.748815033257Clb=7.1m/s Type=DFM17 ser=[BC]22044254 Details on http://radiosondy.info
KB5VL-14D220442542022-12-07 00:41:2835.4663-104.7487413533175Clb=7.0m/s Type=DFM17 ser=[BC]22044254 Details on http://radiosondy.info
KB5VL-14D220442542022-12-07 00:41:2735.4655-104.7548512433063Clb=5.1m/s Type=DFM17 ser=[BC]22044254 Details on http://radiosondy.info
KB5VL-14D220442542022-12-07 00:41:2635.4653-104.767314432985Clb=3.8m/s Type=DFM17 ser=[BC]22044254 Details on http://radiosondy.info
KB5VL-14D220442542022-12-07 00:39:5135.4665-104.82410514832016Clb=8.1m/s Type=DFM17 ser=[BC]22044254 Details on http://radiosondy.info
KB5VL-14D220442542022-12-07 00:39:2835.4665-104.8310013931905Clb=4.2m/s Type=DFM17 ser=[BC]22044254 Details on http://radiosondy.info
KB5VL-14D220442542022-12-07 00:39:0135.467-104.8388015731781Clb=4.9m/s Type=DFM17 ser=[BC]22044254 Details on http://radiosondy.info
KB5VL-14D220442542022-12-07 00:35:0935.4677-104.9027113530986Clb=6.4m/s Type=DFM17 ser=[BC]22044254 Details on http://radiosondy.info
KB5VL-14D220442542022-12-07 00:34:4735.4672-104.9096714830891Clb=11.5m/s Type=DFM17 ser=[BC]22044254 Details on http://radiosondy.info
KB5VL-14D220442542022-12-07 00:34:1935.4661-104.9169510930785Clb=1.6m/s Type=DFM17 ser=[BC]22044254 Details on http://radiosondy.info
KB5VL-14D220442542022-12-07 00:29:5035.4618-104.9767612029684Clb=4.2m/s Type=DFM17 ser=[BC]22044254 Details on http://radiosondy.info
KB5VL-14D220442542022-12-07 00:29:2035.4615-104.9828412629584Clb=1.5m/s Type=DFM17 ser=[BC]22044254 Details on http://radiosondy.info
KB5VL-14D220442542022-12-07 00:28:5535.4612-104.988888929490Clb=9.5m/s Type=DFM17 ser=[BC]22044254 Details on http://radiosondy.info
KB5VL-14D220442542022-12-07 00:27:4235.4674-105.0661005927517Clb=6.1m/s Type=DFM17 ser=[BC]22044254 Details on http://radiosondy.info
KB5VL-14D220442542022-12-07 00:27:4135.4685-105.0681105427431Clb=6.8m/s Type=DFM17 ser=[BC]22044254 Details on http://radiosondy.info
KB5VL-14D220442542022-12-07 00:27:2435.4694-105.071075627346Clb=0.7m/s Type=DFM17 ser=[BC]22044254 Details on http://radiosondy.info
KB5VL-14D220442542022-12-07 00:27:0535.4698-105.073734827262Clb=1.5m/s Type=DFM17 ser=[BC]22044254 Details on http://radiosondy.info
KB5VL-14D220442542022-12-07 00:25:4335.4708-105.0911244326361Clb=9.6m/s Type=DFM17 ser=[BC]22044254 Details on http://radiosondy.info
KB5VL-14D220442542022-12-07 00:25:1835.4715-105.0931205026267Clb=9.0m/s Type=DFM17 ser=[BC]22044254 Details on http://radiosondy.info
KB5VL-14D220442542022-12-07 00:24:5335.4721-105.095875026159Clb=6.2m/s Type=DFM17 ser=[BC]22044254 Details on http://radiosondy.info
KB5VL-14D220442542022-12-07 00:24:2435.4724-105.0971174826067Clb=6.5m/s Type=DFM17 ser=[BC]22044254 Details on http://radiosondy.info
KB5VL-14D220442542022-12-07 00:20:3735.4789-105.1151094425427Clb=4.8m/s Type=DFM17 ser=[BC]22044254 Details on http://radiosondy.info
KB5VL-14D220442542022-12-07 00:11:2135.4927-105.162912423371Clb=4.0m/s Type=DFM17 ser=[BC]22044254 Details on http://radiosondy.info
KB5VL-14D220442542022-12-07 00:11:0135.4933-105.163743023273Clb=5.7m/s Type=DFM17 ser=[BC]22044254 Details on http://radiosondy.info
KB5VL-14D220442542022-12-07 00:10:5335.4939-105.1641024123154Clb=5.5m/s Type=DFM17 ser=[BC]22044254 Details on http://radiosondy.info
KB5VL-14D220442542022-12-07 00:10:4835.4946-105.1641215923059Clb=8.1m/s Type=DFM17 ser=[BC]22044254 Details on http://radiosondy.info
KB5VL-14D220442542022-12-07 00:09:4735.5021-105.1929610722260Clb=5.8m/s Type=DFM17 ser=[BC]22044254 Details on http://radiosondy.info
KB5VL-14D220442542022-12-06 23:53:1835.4735-105.4337311916813Clb=6.5m/s Type=DFM17 ser=[BC]22044254 Details on http://radiosondy.info
KB5VL-14D220442542022-12-06 23:50:5735.4583-105.4897015715933Clb=6.3m/s Type=DFM17 ser=[BC]22044254 Details on http://radiosondy.info
KB5VL-14D220442542022-12-06 23:50:5535.4531-105.5056916715802Clb=6.5m/s Type=DFM17 ser=[BC]22044254 Details on http://radiosondy.info
KB5VL-14D220442542022-12-06 23:50:5435.4506-105.5127017615726Clb=5.1m/s Type=DFM17 ser=[BC]22044254 Details on http://radiosondy.info
KB5VL-14D220442542022-12-06 23:41:4735.3702-105.7446518313135Clb=4.2m/s Type=DFM17 ser=[BC]22044254 Details on http://radiosondy.info
KB5VL-14D220442542022-12-06 23:41:2435.3673-105.7516218713045Clb=6.7m/s Type=DFM17 ser=[BC]22044254 Details on http://radiosondy.info
KB5VL-14D220442542022-12-06 23:41:0035.3642-105.7596619312959Clb=6.6m/s Type=DFM17 ser=[BC]22044254 Details on http://radiosondy.info
KB5VL-14D220442542022-12-06 23:40:3835.3609-105.7676622212874Clb=6.2m/s Type=DFM17 ser=[BC]22044254 Details on http://radiosondy.info
KB5VL-14D220442542022-12-06 23:38:1535.3262-105.866522812102Clb=4.4m/s Type=DFM17 ser=[BC]22044254 Details on http://radiosondy.info
KB5VL-14D220442542022-12-06 23:38:1435.3226-105.876523212029Clb=3.5m/s Type=DFM17 ser=[BC]22044254 Details on http://radiosondy.info
KB5VL-14D220442542022-12-06 23:38:0435.3191-105.8796723211960Clb=4.4m/s Type=DFM17 ser=[BC]22044254 Details on http://radiosondy.info
KB5VL-14D220442542022-12-06 23:35:1235.285-105.9666523311292Clb=5.2m/s Type=DFM17 ser=[BC]22044254 Details on http://radiosondy.info
KB5VL-14D220442542022-12-06 23:34:5735.2811-105.9766223311224Clb=5.3m/s Type=DFM17 ser=[BC]22044254 Details on http://radiosondy.info
KB5VL-14D220442542022-12-06 23:34:4235.2771-105.9856323311157Clb=3.3m/s Type=DFM17 ser=[BC]22044254 Details on http://radiosondy.info
KB5VL-14D220442542022-12-06 23:34:2735.2732-105.9956423311089Clb=4.6m/s Type=DFM17 ser=[BC]22044254 Details on http://radiosondy.info
KB5VL-14D220442542022-12-06 23:32:1435.2365-106.0816423010448Clb=6.1m/s Type=DFM17 ser=[BC]22044254 Details on http://radiosondy.info
KB5VL-14D220442542022-12-06 23:31:5635.2326-106.0916422810366Clb=3.8m/s Type=DFM Details on http://radiosondy.info
KB5VL-14D220442542022-12-06 23:31:4135.2286-106.16122610282Clb=8.0m/s Type=DFM Details on http://radiosondy.info
KB5VL-14D220442542022-12-06 23:31:2635.2247-106.1096122410196Clb=4.9m/s Type=DFM Details on http://radiosondy.info